CheckWX is a tool to help pilots better visualize weather data.  It is not intended as a substitute for an official pre-flight weather briefing.

07:13:36 UTC

KMDW METAR
Chicago Midway International Airport
Chicago, Illinois, USA
Current

21 mins ago

KMDW 260653Z 26005KT 10SM FEW060 SCT080 BKN100 23/19 A2995 RMK AO2 RAB34E48 SLP131 FRQ LTGICCC DSNT S-SW CB DSNT S-SW P0000 T02280189
Observed
May-26 @ 06:53 UTC
Wind
  • 260° at 5 KTS
Visibility
10 SM
Flight Rules
VFR
Cloud Levels
  • Few at 6,000' AGL
  • Scattered at 8,000' AGL
  • Broken at 10,000' AGL
Temperature
23°C / 73°F
Dewpoint
19°C / 66°F
Humidity
78%
Altimeter
29.95" Hg
Pressure
1014.22 hPa
Current Rain
0.01"
Previous

1 hour ago

KMDW 260553Z 25005KT 10SM BKN090 BKN250 23/18 A2996 RMK AO2 SLP137 OCNL LTG DSNT W CB DSNT W T02280183 10278 20228 402830222 53008
Observed
May-26 @ 05:53 UTC
Wind
  • 250° at 5 KTS
Visibility
10 SM
Flight Rules
VFR
Cloud Levels
  • Broken at 9,000' AGL
  • Broken at 25,000' AGL
Temperature
23°C / 73°F
Dewpoint
18°C / 64°F
Humidity
74%
Altimeter
29.96" Hg
Pressure
1014.52 hPa
Previous

2 hours ago

KMDW 260453Z 24007KT 10SM BKN250 23/19 A2995 RMK AO2 SLP133 T02330189
Observed
May-26 @ 04:53 UTC
Wind
  • 240° at 7 KTS
Visibility
10 SM
Flight Rules
VFR
Cloud Levels
  • Broken at 25,000' AGL
Temperature
23°C / 73°F
Dewpoint
19°C / 66°F
Humidity
78%
Altimeter
29.95" Hg
Pressure
1014.22 hPa